Main page
METAR-TAF:

METAR-TAF

Airports :

Hahn, Germany

Frankfurt–Hahn Airport

latitude: 49-57N, longitude: 007-16E, elevation: 491 m

Current weather observation

The report was made 22 minutes ago, at 10:50 UTC
Wind 24 kt from the South/Southwest with gusts up to 40 kt
Temperature 12°C
Humidity 67%
Pressure 1006 hPa
Visibility 10 km or more
Broken clouds at a height of 2900 ft

METAR: EDFH 231050Z 21024G40KT 9999 BKN029 12/06 Q1006

Time: 12:12 (11:12 UTC)

Forecast

The report was made 6 hours and 12 minutes ago, at 05:00 UTC
Forecast valid from 23 at 06 UTC to 24 at 06 UTC
Wind 15 kt from the South with gusts up to 25 kt
Visibility 10 km or more
no clouds below 1500 m and no cumulonimbus
Temporary
from 23 at 08 UTC to 23 at 16 UTC
Wind 20 kt from the Southwest with gusts up to 35 kt
Probability 40% :
Temporary
from 23 at 22 UTC to 24 at 06 UTC
Broken clouds at a height of 800 ft
rain

TAF: EDFH 230500Z 2306/2406 19015G25KT CAVOK TEMPO 2308/2316 22020G35KT PROB40 TEMPO 2322/2406 RA BKN008

Weather observations and forecasts of more than 4000 airports (METAR and TAF reports).

The available stations are represented by yellow and red dots on the map.

Hover mouse over dot to see the name of the station.

Then click to see weather observations and forecasts.

To change the map : click on the green buttons with a black cross to zoom in, on the green button with a dash to zoom out, or on the green arrows for adjacent maps.


METAR-TAF: